createdAt,value
2019-04-19T00:00:12.736Z,5.30
2019-04-19T00:02:43.062Z,5.00
2019-04-19T00:05:15.345Z,5.50
2019-04-19T00:07:49.541Z,4.60
2019-04-19T00:10:28.648Z,5.63
2019-04-19T00:12:50.367Z,5.83
2019-04-19T00:15:13.960Z,5.57
2019-04-19T00:17:42.136Z,5.70
2019-04-19T00:20:31.452Z,5.47
2019-04-19T00:22:53.559Z,5.50
2019-04-19T00:25:09.937Z,5.40
2019-04-19T00:27:44.193Z,4.97
2019-04-19T00:30:21.849Z,5.23
2019-04-19T00:32:53.680Z,5.70
2019-04-19T00:35:07.447Z,5.37
2019-04-19T00:37:36.461Z,5.70
2019-04-19T00:40:33.080Z,6.30
2019-04-19T00:43:06.284Z,5.80
2019-04-19T00:45:58.526Z,5.50
2019-04-19T00:48:24.288Z,6.10
2019-04-19T00:50:52.944Z,5.90
2019-04-19T00:53:19.355Z,5.50
2019-04-19T00:55:44.054Z,5.03
2019-04-19T00:58:13.626Z,5.40
2019-04-19T01:00:36.763Z,5.50
2019-04-19T01:03:04.241Z,4.87
2019-04-19T01:05:43.369Z,5.90
2019-04-19T01:08:07.307Z,6.23
2019-04-19T01:10:43.787Z,5.10
2019-04-19T01:13:11.129Z,5.13
2019-04-19T01:15:40.368Z,5.60
2019-04-19T01:18:19.025Z,5.20
2019-04-19T01:20:31.070Z,5.53
2019-04-19T01:23:05.681Z,5.10
2019-04-19T01:25:30.268Z,4.97
2019-04-19T01:28:08.551Z,5.33
2019-04-19T01:30:33.331Z,5.50
2019-04-19T01:32:59.763Z,5.57
2019-04-19T01:35:28.179Z,5.20
2019-04-19T01:38:01.942Z,5.23
2019-04-19T01:40:40.809Z,4.90
2019-04-19T01:43:13.064Z,5.23
2019-04-19T01:46:03.665Z,5.23
2019-04-19T01:48:50.571Z,4.87
2019-04-19T01:51:49.099Z,5.20
2019-04-19T01:54:29.624Z,4.80
2019-04-19T01:56:54.914Z,6.03
2019-04-19T01:59:20.363Z,5.50
2019-04-19T02:01:52.766Z,6.13
2019-04-19T02:04:24.322Z,5.40
2019-04-19T02:06:49.561Z,5.43
2019-04-19T02:09:30.349Z,5.40
2019-04-19T02:11:59.083Z,5.50
2019-04-19T02:14:23.609Z,5.80
2019-04-19T02:16:52.647Z,5.43
2019-04-19T02:19:23.228Z,5.03
2019-04-19T02:21:50.690Z,4.73
2019-04-19T02:24:21.622Z,5.40
2019-04-19T02:26:54.321Z,5.83
2019-04-19T02:29:22.022Z,5.73
2019-04-19T02:32:13.523Z,6.07
2019-04-19T02:34:39.311Z,6.03
2019-04-19T02:37:15.745Z,6.20
2019-04-19T02:39:47.612Z,6.07
2019-04-19T02:44:51.273Z,5.50
2019-04-19T02:47:21.743Z,5.80
2019-04-19T02:52:21.248Z,5.97
2019-04-19T02:55:10.840Z,5.13
2019-04-19T03:00:52.747Z,6.53
2019-04-19T03:03:22.090Z,6.63
2019-04-19T03:05:41.872Z,5.93
2019-04-19T03:07:53.833Z,5.60
2019-04-19T03:10:25.613Z,6.10
2019-04-19T03:13:08.058Z,5.70
2019-04-19T03:15:44.095Z,6.57
2019-04-19T03:18:16.516Z,5.73
2019-04-19T03:20:36.215Z,5.83
2019-04-19T03:23:03.142Z,6.37
2019-04-19T03:25:35.805Z,6.30
2019-04-19T03:28:03.284Z,6.37
2019-04-19T03:30:45.844Z,5.77
2019-04-19T03:33:38.653Z,6.13
2019-04-19T03:35:47.966Z,6.30
2019-04-19T03:38:11.511Z,6.20
2019-04-19T03:40:39.024Z,6.03
2019-04-19T03:43:31.390Z,7.27
2019-04-19T03:45:56.177Z,7.50
2019-04-19T03:48:27.249Z,6.57
2019-04-19T03:51:00.373Z,7.60
2019-04-19T03:53:30.983Z,6.70
2019-04-19T03:56:01.799Z,7.00
2019-04-19T03:58:11.386Z,7.40
2019-04-19T04:00:34.545Z,7.50
2019-04-19T04:03:08.870Z,7.00
2019-04-19T04:05:36.743Z,6.93
2019-04-19T04:08:11.390Z,6.50
2019-04-19T04:10:46.010Z,6.27
2019-04-19T04:13:43.110Z,6.83
2019-04-19T04:16:32.727Z,7.00
2019-04-19T04:18:55.480Z,5.93
2019-04-19T04:21:28.361Z,7.10
2019-04-19T04:24:05.287Z,6.80
2019-04-19T04:26:32.052Z,8.50
2019-04-19T04:29:04.989Z,7.20
2019-04-19T04:31:34.405Z,6.97
2019-04-19T04:34:03.486Z,7.63
2019-04-19T04:36:42.298Z,6.03
2019-04-19T04:38:53.038Z,7.17
2019-04-19T04:41:27.880Z,7.90
2019-04-19T04:44:13.575Z,7.57
2019-04-19T04:47:02.376Z,7.67
2019-04-19T04:49:41.364Z,7.20
2019-04-19T04:52:15.052Z,7.93
2019-04-19T04:54:35.500Z,8.80
2019-04-19T04:57:30.667Z,8.77
2019-04-19T04:59:55.592Z,8.63
2019-04-19T05:02:40.134Z,8.37
2019-04-19T05:05:10.168Z,8.27
2019-04-19T05:07:40.578Z,7.10
2019-04-19T05:10:09.382Z,8.00
2019-04-19T05:13:01.187Z,31.50
2019-04-19T05:15:07.234Z,51.03
2019-04-19T05:17:49.664Z,24.30
2019-04-19T05:20:09.127Z,13.70
2019-04-19T05:22:32.541Z,9.80
2019-04-19T05:25:19.298Z,9.27
2019-04-19T05:27:38.961Z,8.67
2019-04-19T05:29:53.378Z,7.70
2019-04-19T05:32:28.091Z,7.83
2019-04-19T05:35:07.000Z,7.90
2019-04-19T05:37:45.260Z,7.80
2019-04-19T05:40:19.176Z,7.37
2019-04-19T05:43:11.859Z,7.50
2019-04-19T05:46:07.142Z,8.20
2019-04-19T05:48:00.527Z,10.47
2019-04-19T05:50:39.553Z,44.50
2019-04-19T05:53:07.885Z,25.70
2019-04-19T05:55:22.266Z,14.90
2019-04-19T05:58:06.670Z,11.50
2019-04-19T06:00:41.249Z,8.87
2019-04-19T06:03:05.242Z,8.07
2019-04-19T06:05:55.455Z,8.30
2019-04-19T06:08:06.299Z,8.17
2019-04-19T06:10:25.469Z,7.63
2019-04-19T06:13:00.330Z,7.33
2019-04-19T06:15:51.135Z,7.87
2019-04-19T06:18:31.581Z,8.70
2019-04-19T06:21:10.578Z,6.80
2019-04-19T06:23:38.803Z,6.80
2019-04-19T06:26:35.670Z,10.77
2019-04-19T06:28:48.147Z,36.80
2019-04-19T06:31:13.610Z,19.70
2019-04-19T06:33:40.278Z,13.83
2019-04-19T06:35:53.738Z,9.90
2019-04-19T06:38:20.428Z,8.70
2019-04-19T06:40:54.444Z,7.73
2019-04-19T06:43:32.496Z,6.80
2019-04-19T06:46:02.637Z,6.97
2019-04-19T06:48:22.219Z,8.03
2019-04-19T06:50:52.495Z,7.13
2019-04-19T06:53:16.864Z,6.70
2019-04-19T06:55:49.488Z,7.10
2019-04-19T06:58:22.098Z,7.10
2019-04-19T07:00:59.516Z,10.80
2019-04-19T07:03:14.881Z,33.87
2019-04-19T07:06:05.237Z,33.80
2019-04-19T07:11:07.189Z,11.40
2019-04-19T07:13:24.896Z,8.53
2019-04-19T07:16:08.618Z,7.23
2019-04-19T07:18:30.412Z,6.90
2019-04-19T07:21:01.939Z,5.80
2019-04-19T07:23:33.168Z,6.07
2019-04-19T07:26:08.693Z,6.37
2019-04-19T07:28:19.548Z,6.00
2019-04-19T07:30:42.751Z,5.90
2019-04-19T07:33:15.497Z,5.67
2019-04-19T07:36:01.807Z,6.13
2019-04-19T07:38:27.330Z,8.30
2019-04-19T07:41:01.567Z,13.10
2019-04-19T07:43:23.614Z,10.43
2019-04-19T07:46:08.121Z,15.80
2019-04-19T07:48:40.977Z,11.03
2019-04-19T07:51:15.200Z,7.30
2019-04-19T07:53:44.310Z,6.17
2019-04-19T07:56:21.942Z,9.23
2019-04-19T07:58:55.491Z,18.57
2019-04-19T08:01:47.184Z,12.83
2019-04-19T08:04:24.745Z,9.93
2019-04-19T08:06:41.130Z,7.17
2019-04-19T08:09:05.254Z,6.13
2019-04-19T08:11:46.488Z,5.40
2019-04-19T08:14:01.267Z,5.30
2019-04-19T08:17:04.363Z,4.63
2019-04-19T08:28:46.577Z,4.17
2019-04-19T08:31:09.302Z,4.90
2019-04-19T08:33:38.832Z,13.73
2019-04-19T08:36:09.482Z,14.60
2019-04-19T08:38:35.897Z,15.73
2019-04-19T08:41:13.694Z,9.07
2019-04-19T08:43:51.015Z,7.10
2019-04-19T08:46:16.057Z,5.33
2019-04-19T08:48:54.491Z,5.20
2019-04-19T08:51:43.281Z,5.20
2019-04-19T08:54:32.505Z,4.60
2019-04-19T08:56:52.505Z,5.23
2019-04-19T09:02:03.049Z,12.17
2019-04-19T09:04:33.053Z,8.90
2019-04-19T09:09:37.223Z,6.33
2019-04-19T09:12:03.897Z,5.80
2019-04-19T09:14:36.580Z,5.00
2019-04-19T09:17:10.106Z,4.30
2019-04-19T09:19:44.561Z,4.47
2019-04-19T09:21:54.301Z,4.00
2019-04-19T09:24:16.033Z,4.13
2019-04-19T09:26:54.302Z,3.97
2019-04-19T09:29:34.077Z,4.20
2019-04-19T09:31:51.205Z,4.70
2019-04-19T09:34:14.155Z,5.53
2019-04-19T09:36:49.215Z,10.83
2019-04-19T09:39:24.980Z,11.00
2019-04-19T09:41:54.695Z,9.83
2019-04-19T09:44:25.771Z,7.63
2019-04-19T09:46:46.732Z,6.07
2019-04-19T09:49:26.589Z,5.70
2019-04-19T09:51:58.769Z,5.20
2019-04-19T09:54:39.111Z,5.20
2019-04-19T09:57:01.309Z,4.30
2019-04-19T09:59:24.089Z,4.53
2019-04-19T10:01:48.616Z,4.10
2019-04-19T10:04:14.698Z,4.20
2019-04-19T10:06:42.803Z,4.20
2019-04-19T10:09:20.715Z,22.60
2019-04-19T10:11:46.637Z,18.27
2019-04-19T10:14:15.098Z,11.30
2019-04-19T10:17:00.406Z,9.13
2019-04-19T10:19:28.632Z,7.00
2019-04-19T10:22:00.411Z,5.20
2019-04-19T10:24:29.456Z,4.90
2019-04-19T10:27:10.816Z,5.30
2019-04-19T10:29:43.523Z,3.67
2019-04-19T10:32:20.303Z,4.30
2019-04-19T10:34:58.780Z,4.40
2019-04-19T10:37:28.246Z,3.70
2019-04-19T10:39:57.430Z,3.60
2019-04-19T10:42:25.404Z,4.70
2019-04-19T10:44:54.042Z,3.90
2019-04-19T10:47:22.898Z,4.20
2019-04-19T10:49:56.101Z,4.00
2019-04-19T10:52:25.621Z,4.70
2019-04-19T10:54:55.381Z,3.80
2019-04-19T10:57:25.382Z,3.23
2019-04-19T10:59:58.671Z,4.37
2019-04-19T11:02:29.751Z,4.80
2019-04-19T11:04:58.745Z,8.83
2019-04-19T11:07:27.601Z,12.40
2019-04-19T11:09:57.752Z,11.80
2019-04-19T11:12:26.254Z,7.27
2019-04-19T11:14:54.650Z,8.30
2019-04-19T11:17:23.359Z,7.40
2019-04-19T11:20:04.698Z,7.17
2019-04-19T11:22:21.734Z,5.17
2019-04-19T11:24:50.004Z,4.57
2019-04-19T11:27:19.237Z,4.50
2019-04-19T11:29:48.374Z,4.40
2019-04-19T11:32:22.031Z,3.67
2019-04-19T11:34:51.336Z,3.67
2019-04-19T11:37:20.095Z,3.63
2019-04-19T11:39:48.726Z,3.30
2019-04-19T11:42:17.254Z,2.97
2019-04-19T11:44:45.617Z,2.60
2019-04-19T11:47:15.199Z,3.07
2019-04-19T11:49:45.179Z,2.43
2019-04-19T11:52:26.487Z,2.40
2019-04-19T11:54:54.780Z,2.87
2019-04-19T11:57:32.791Z,2.47
2019-04-19T12:00:29.680Z,2.20
2019-04-19T12:02:58.140Z,2.00
2019-04-19T12:05:30.370Z,2.60
2019-04-19T12:07:55.213Z,1.80
2019-04-19T12:10:24.139Z,2.40
2019-04-19T12:12:53.011Z,2.10
2019-04-19T12:15:25.213Z,2.40
2019-04-19T12:17:52.326Z,2.40
2019-04-19T12:20:21.305Z,3.90
2019-04-19T12:22:50.058Z,9.40
2019-04-19T12:25:17.826Z,7.27
2019-04-19T12:27:46.300Z,6.23
2019-04-19T12:30:14.451Z,17.03
2019-04-19T12:32:49.495Z,18.40
2019-04-19T12:35:18.536Z,12.30
2019-04-19T12:37:47.492Z,9.30
2019-04-19T12:40:15.401Z,5.93
2019-04-19T12:42:46.322Z,3.97
2019-04-19T12:45:15.698Z,4.07
2019-04-19T12:47:45.005Z,3.20
2019-04-19T12:50:14.654Z,3.17
2019-04-19T12:52:42.544Z,2.30
2019-04-19T12:55:10.466Z,2.10
2019-04-19T12:57:43.821Z,2.10
2019-04-19T13:00:14.610Z,2.13
2019-04-19T13:02:47.534Z,2.40
2019-04-19T13:05:18.588Z,2.30
2019-04-19T13:07:47.665Z,2.30
2019-04-19T13:10:15.452Z,2.80
2019-04-19T13:12:44.012Z,3.20
2019-04-19T13:15:14.098Z,3.23
2019-04-19T13:17:42.358Z,2.73
2019-04-19T13:20:17.538Z,2.87
2019-04-19T13:22:40.719Z,2.33
2019-04-19T13:25:09.443Z,2.40
2019-04-19T13:27:45.698Z,2.03
2019-04-19T13:30:20.418Z,2.20
2019-04-19T13:32:39.810Z,2.10
2019-04-19T13:35:07.564Z,1.90
2019-04-19T13:37:49.471Z,2.70
2019-04-19T13:40:37.133Z,20.23
2019-04-19T13:43:05.335Z,15.20
2019-04-19T13:45:35.227Z,9.37
2019-04-19T13:48:04.754Z,7.10
2019-04-19T13:50:37.511Z,4.03
2019-04-19T13:53:02.639Z,3.00
2019-04-19T13:55:30.710Z,2.67
2019-04-19T13:57:59.749Z,2.27
2019-04-19T14:00:38.819Z,2.07
2019-04-19T14:03:07.519Z,2.03
2019-04-19T14:05:36.117Z,1.80
2019-04-19T14:08:04.157Z,1.80
2019-04-19T14:10:32.888Z,1.80
2019-04-19T14:13:01.023Z,1.87
2019-04-19T14:15:28.944Z,1.90
2019-04-19T14:17:56.895Z,2.10
2019-04-19T14:20:34.830Z,1.47
2019-04-19T14:22:55.192Z,2.00
2019-04-19T14:25:23.300Z,2.50
2019-04-19T14:27:51.442Z,2.00
2019-04-19T14:30:20.020Z,1.80
2019-04-19T14:32:49.463Z,2.00
2019-04-19T14:35:17.669Z,1.70
2019-04-19T14:37:45.987Z,1.70
2019-04-19T14:40:15.680Z,2.00
2019-04-19T14:42:44.571Z,2.43
2019-04-19T14:45:14.237Z,2.53
2019-04-19T14:47:42.389Z,2.03
2019-04-19T14:50:10.748Z,2.00
2019-04-19T14:52:38.322Z,1.87
2019-04-19T14:55:06.207Z,2.10
2019-04-19T14:57:34.219Z,2.10
2019-04-19T15:00:03.111Z,1.90
2019-04-19T15:02:54.569Z,4.67
2019-04-19T15:05:29.812Z,3.60
2019-04-19T15:07:58.831Z,3.80
2019-04-19T15:10:27.344Z,5.37
2019-04-19T15:12:56.660Z,3.20
2019-04-19T15:15:24.978Z,2.60
2019-04-19T15:17:54.077Z,12.33
2019-04-19T15:20:26.458Z,7.13
2019-04-19T15:22:54.300Z,26.60
2019-04-19T15:25:23.646Z,16.73
2019-04-19T15:27:52.813Z,8.00
2019-04-19T15:30:21.437Z,4.40
2019-04-19T15:32:50.598Z,3.20
2019-04-19T15:35:19.516Z,2.13
2019-04-19T15:37:47.758Z,1.80
2019-04-19T15:40:20.278Z,2.70
2019-04-19T15:42:48.552Z,1.50
2019-04-19T15:45:18.787Z,1.90
2019-04-19T15:47:46.650Z,2.10
2019-04-19T15:50:15.920Z,1.93
2019-04-19T15:52:44.510Z,1.90
2019-04-19T15:55:12.503Z,2.17
2019-04-19T15:57:41.776Z,1.83
2019-04-19T16:00:18.434Z,9.10
2019-04-19T16:02:58.005Z,10.03
2019-04-19T16:05:51.974Z,5.40
2019-04-19T16:08:29.083Z,5.00
2019-04-19T16:11:16.372Z,2.50
2019-04-19T16:13:44.251Z,2.10
2019-04-19T16:16:12.250Z,2.03
2019-04-19T16:18:40.310Z,2.00
2019-04-19T16:21:20.119Z,1.83
2019-04-19T16:23:38.382Z,1.57
2019-04-19T16:26:06.861Z,1.50
2019-04-19T16:28:35.154Z,1.60
2019-04-19T16:31:04.175Z,1.50
2019-04-19T16:33:31.978Z,1.50
2019-04-19T16:36:43.682Z,1.70
2019-04-19T16:39:09.374Z,1.40
2019-04-19T16:41:44.885Z,1.80
2019-04-19T16:44:39.269Z,1.90
2019-04-19T16:47:15.349Z,1.57
2019-04-19T16:50:10.257Z,1.90
2019-04-19T16:52:54.618Z,2.00
2019-04-19T16:55:51.904Z,1.83
2019-04-19T16:58:24.506Z,2.57
2019-04-19T17:01:14.659Z,2.60
2019-04-19T17:03:43.606Z,2.07
2019-04-19T17:06:12.903Z,2.33
2019-04-19T17:08:50.386Z,2.47
2019-04-19T17:11:43.843Z,2.67
2019-04-19T17:14:34.773Z,4.17
2019-04-19T17:17:21.057Z,4.50
2019-04-19T17:20:19.510Z,3.30
2019-04-19T17:23:01.101Z,2.67
2019-04-19T17:25:57.082Z,2.70
2019-04-19T17:28:23.397Z,2.47
2019-04-19T17:31:09.514Z,2.53
2019-04-19T17:33:42.124Z,2.13
2019-04-19T17:36:33.229Z,1.60
2019-04-19T17:39:13.010Z,1.90
2019-04-19T17:41:43.457Z,1.87
2019-04-19T17:44:22.030Z,1.70
2019-04-19T17:46:58.219Z,1.90
2019-04-19T17:49:46.580Z,1.50
2019-04-19T17:52:42.244Z,1.97
2019-04-19T17:55:25.106Z,1.80
2019-04-19T17:57:55.071Z,1.90
2019-04-19T18:00:39.967Z,2.20
2019-04-19T18:03:08.710Z,2.00
2019-04-19T18:05:38.112Z,2.17
2019-04-19T18:08:22.557Z,2.50
2019-04-19T18:10:47.045Z,2.77
2019-04-19T18:13:13.015Z,2.20
2019-04-19T18:15:42.567Z,3.23
2019-04-19T18:18:12.002Z,3.17
2019-04-19T18:20:48.925Z,2.70
2019-04-19T18:23:27.181Z,2.83
2019-04-19T18:25:42.911Z,2.70
2019-04-19T18:28:12.966Z,3.07
2019-04-19T18:30:47.214Z,2.80
2019-04-19T18:33:14.677Z,2.33
2019-04-19T18:35:44.252Z,2.93
2019-04-19T18:38:19.569Z,3.10
2019-04-19T18:40:42.864Z,2.90
2019-04-19T18:43:21.986Z,3.10
2019-04-19T18:45:42.203Z,3.13
2019-04-19T18:48:09.581Z,3.30
2019-04-19T18:50:50.412Z,3.23
2019-04-19T18:53:30.110Z,3.27
2019-04-19T18:55:53.564Z,3.20
2019-04-19T18:58:28.248Z,3.23
2019-04-19T19:00:52.331Z,3.60
2019-04-19T19:03:20.008Z,2.90
2019-04-19T19:05:55.669Z,3.80
2019-04-19T19:08:25.403Z,3.23
2019-04-19T19:10:51.653Z,3.10
2019-04-19T19:13:27.676Z,2.47
2019-04-19T19:15:52.816Z,3.30
2019-04-19T19:18:19.309Z,3.33
2019-04-19T19:20:49.549Z,3.17
2019-04-19T19:23:32.796Z,3.10
2019-04-19T19:25:55.278Z,2.50
2019-04-19T19:28:19.875Z,3.67
2019-04-19T19:30:47.049Z,2.97
2019-04-19T19:33:19.814Z,3.37
2019-04-19T19:35:52.185Z,3.30
2019-04-19T19:38:19.741Z,3.50
2019-04-19T19:40:59.801Z,2.73
2019-04-19T19:43:37.196Z,3.53
2019-04-19T19:46:04.202Z,3.47
2019-04-19T19:48:39.076Z,3.40
2019-04-19T19:51:06.045Z,3.80
2019-04-19T19:56:11.409Z,3.60
2019-04-19T19:58:25.552Z,2.93
2019-04-19T20:01:00.757Z,3.27
2019-04-19T20:03:17.470Z,3.40
2019-04-19T20:05:42.773Z,3.73
2019-04-19T20:08:14.734Z,3.40
2019-04-19T20:10:43.993Z,3.73
2019-04-19T20:13:14.582Z,4.03
2019-04-19T20:15:42.416Z,3.67
2019-04-19T20:18:10.506Z,4.43
2019-04-19T20:20:41.378Z,5.03
2019-04-19T20:23:12.268Z,4.13
2019-04-19T20:25:45.221Z,4.17
2019-04-19T20:28:07.207Z,4.07
2019-04-19T20:30:39.046Z,4.00
2019-04-19T20:33:10.434Z,3.90
2019-04-19T20:35:34.527Z,3.60
2019-04-19T20:38:07.489Z,3.93
2019-04-19T20:40:32.941Z,4.90
2019-04-19T20:43:20.888Z,4.00
2019-04-19T20:45:40.873Z,4.10
2019-04-19T20:48:07.599Z,3.80
2019-04-19T20:50:42.705Z,4.10
2019-04-19T20:53:20.727Z,4.40
2019-04-19T20:56:03.082Z,3.60
2019-04-19T20:58:27.740Z,3.90
2019-04-19T21:00:50.473Z,3.87
2019-04-19T21:03:26.530Z,3.87
2019-04-19T21:05:50.824Z,3.47
2019-04-19T21:08:22.152Z,3.30
2019-04-19T21:10:53.888Z,3.80
2019-04-19T21:13:20.512Z,4.13
2019-04-19T21:15:46.778Z,4.30
2019-04-19T21:18:21.669Z,3.73
2019-04-19T21:20:44.911Z,3.80
2019-04-19T21:23:22.008Z,3.97
2019-04-19T21:25:53.144Z,4.00
2019-04-19T21:28:14.883Z,3.97
2019-04-19T21:30:46.667Z,3.70
2019-04-19T21:33:15.310Z,4.13
2019-04-19T21:35:49.596Z,3.90
2019-04-19T21:38:15.860Z,4.50
2019-04-19T21:40:43.590Z,3.97
2019-04-19T21:43:11.235Z,4.30
2019-04-19T21:45:44.680Z,4.23
2019-04-19T21:48:08.980Z,3.87
2019-04-19T21:50:41.421Z,4.00
2019-04-19T21:53:09.258Z,4.30
2019-04-19T21:55:40.685Z,4.20
2019-04-19T21:58:09.099Z,4.60
2019-04-19T22:00:49.708Z,4.43
2019-04-19T22:03:18.531Z,4.47
2019-04-19T22:05:49.241Z,5.03
2019-04-19T22:08:23.478Z,5.07
2019-04-19T22:10:50.030Z,4.97
2019-04-19T22:13:17.302Z,4.43
2019-04-19T22:15:51.041Z,4.37
2019-04-19T22:18:16.119Z,4.60
2019-04-19T22:20:51.126Z,4.67
2019-04-19T22:23:14.805Z,4.80
2019-04-19T22:25:52.558Z,4.53
2019-04-19T22:28:13.419Z,5.00
2019-04-19T22:30:45.448Z,4.80
2019-04-19T22:33:12.553Z,4.67
2019-04-19T22:35:41.622Z,4.43
2019-04-19T22:38:14.963Z,4.33
2019-04-19T22:40:40.726Z,4.60
2019-04-19T22:43:12.787Z,4.00
2019-04-19T22:45:40.101Z,5.27
2019-04-19T22:48:14.037Z,4.83
2019-04-19T22:50:39.208Z,4.60
2019-04-19T22:53:06.684Z,4.57
2019-04-19T22:55:45.097Z,4.50
2019-04-19T22:58:05.741Z,5.03
2019-04-19T23:00:38.773Z,4.33
2019-04-19T23:03:08.438Z,5.30
2019-04-19T23:05:41.479Z,5.20
2019-04-19T23:08:06.503Z,5.47
2019-04-19T23:10:44.996Z,5.10
2019-04-19T23:13:09.339Z,5.27
2019-04-19T23:15:38.797Z,4.50
2019-04-19T23:18:10.656Z,5.17
2019-04-19T23:20:37.132Z,5.07
2019-04-19T23:23:07.431Z,5.77
2019-04-19T23:25:38.843Z,4.47
2019-04-19T23:28:20.007Z,5.30
2019-04-19T23:30:39.083Z,5.07
2019-04-19T23:33:14.168Z,5.00
2019-04-19T23:35:44.895Z,4.93
2019-04-19T23:38:18.649Z,5.07
2019-04-19T23:40:42.711Z,5.27
2019-04-19T23:43:10.766Z,5.40
2019-04-19T23:45:43.962Z,5.70
2019-04-19T23:48:08.676Z,6.53
2019-04-19T23:50:40.985Z,5.50
2019-04-19T23:53:10.100Z,5.77
2019-04-19T23:55:38.725Z,6.20
2019-04-19T23:58:06.266Z,5.50
